Time;durP1;ratioP1;P1;durP2;ratioP2;P2;SDS_P1;SDS_P2;PMS_P1;PMS_P2;Temp;Humidity;BMP_temperature;BMP_pressure;BME280_temperature;BME280_humidity;BME280_pressure;Samples;Min_cycle;Max_cycle;Signal;HPM_P1;HPM_P2
2022/04/11 00:00:38;;;;;;;12.00;10.80;;;;;;;;;;5094860;28;20443;-77
2022/04/11 00:03:05;;;;;;;11.90;10.70;;;;;;;;;;5094451;28;20894;-77
2022/04/11 00:05:32;;;;;;;12.73;11.13;;;;;;;;;;5094479;28;20516;-78
2022/04/11 00:07:59;;;;;;;12.70;11.47;;;;;;;;;;5094633;28;20501;-77
2022/04/11 00:10:27;;;;;;;12.20;11.00;;;;;;;;;;5094506;28;20447;-78
2022/04/11 00:13:01;;;;;;;12.40;11.30;;;;;;;;;;5093758;28;20533;-77
2022/04/11 00:15:28;;;;;;;11.83;10.80;;;;;;;;;;5093986;28;20869;-77
2022/04/11 00:17:57;;;;;;;12.27;11.03;;;;;;;;;;5093956;28;20508;-78
2022/04/11 00:20:24;;;;;;;12.27;11.23;;;;;;;;;;5094287;28;20466;-76
2022/04/11 00:22:51;;;;;;;12.10;10.90;;;;;;;;;;5093806;28;20803;-77
2022/04/11 00:25:18;;;;;;;12.93;11.23;;;;;;;;;;5094251;28;20459;-77
2022/04/11 00:27:45;;;;;;;12.17;10.97;;;;;;;;;;5093774;28;20432;-78
2022/04/11 00:30:13;;;;;;;12.83;11.37;;;;;;;;;;5094002;28;20496;-76
2022/04/11 00:32:40;;;;;;;11.47;10.47;;;;;;;;;;5094322;28;20457;-76
2022/04/11 00:35:09;;;;;;;13.00;10.60;;;;;;;;;;5094216;28;20571;-76
2022/04/11 00:37:37;;;;;;;12.57;10.70;;;;;;;;;;5094516;28;20450;-76
2022/04/11 00:40:04;;;;;;;12.23;11.03;;;;;;;;;;5088007;28;20463;-77
2022/04/11 00:42:32;;;;;;;11.43;10.37;;;;;;;;;;5094466;28;20538;-77
2022/04/11 00:45:00;;;;;;;12.20;11.20;;;;;;;;;;5094868;28;20912;-77
2022/04/11 00:47:27;;;;;;;12.67;11.37;;;;;;;;;;5094828;28;21164;-78
2022/04/11 00:49:55;;;;;;;12.40;11.10;;;;;;;;;;5094715;28;20501;-76
2022/04/11 00:52:23;;;;;;;14.47;12.03;;;;;;;;;;5093809;28;20443;-77
2022/04/11 00:54:50;;;;;;;13.33;12.13;;;;;;;;;;5093686;28;20955;-76
2022/04/11 00:57:17;;;;;;;13.57;12.37;;;;;;;;;;5093718;28;20508;-77
2022/04/11 00:59:45;;;;;;;12.73;11.47;;;;;;;;;;5093669;28;20443;-78
2022/04/11 01:02:12;;;;;;;14.10;12.83;;;;;;;;;;5093373;28;20496;-77
2022/04/11 01:04:41;;;;;;;12.93;11.80;;;;;;;;;;5094098;28;20459;-76
2022/04/11 01:07:08;;;;;;;12.93;11.73;;;;;;;;;;5093935;28;20450;-77
2022/04/11 01:09:37;;;;;;;13.60;12.30;;;;;;;;;;5094080;28;20545;-76
2022/04/11 01:12:04;;;;;;;14.63;11.33;;;;;;;;;;5093445;28;20441;-76
2022/04/11 01:14:31;;;;;;;12.70;10.97;;;;;;;;;;5093656;28;20922;-78
2022/04/11 01:16:59;;;;;;;14.93;12.50;;;;;;;;;;5093979;28;20452;-76
2022/04/11 01:19:27;;;;;;;15.67;12.27;;;;;;;;;;5093899;28;20534;-76
2022/04/11 01:21:56;;;;;;;13.33;11.53;;;;;;;;;;5093475;28;20529;-76
2022/04/11 01:24:23;;;;;;;11.83;10.90;;;;;;;;;;5093309;28;20524;-76
2022/04/11 01:26:50;;;;;;;13.10;11.80;;;;;;;;;;5093381;28;20918;-77
2022/04/11 01:29:18;;;;;;;15.07;11.77;;;;;;;;;;5093409;28;20502;-76
2022/04/11 01:31:45;;;;;;;13.53;12.23;;;;;;;;;;5093211;28;21021;-77
2022/04/11 01:34:12;;;;;;;12.23;11.10;;;;;;;;;;5098675;28;20467;-77
2022/04/11 01:36:39;;;;;;;14.87;11.07;;;;;;;;;;5099592;28;21045;-77
2022/04/11 01:39:08;;;;;;;13.33;11.50;;;;;;;;;;5101332;28;20510;-76
2022/04/11 01:41:35;;;;;;;13.60;12.03;;;;;;;;;;5102624;28;20449;-76
2022/04/11 01:44:02;;;;;;;12.77;11.47;;;;;;;;;;5095443;28;20837;-76
2022/04/11 01:46:29;;;;;;;11.67;10.53;;;;;;;;;;5093392;28;20987;-77
2022/04/11 01:48:56;;;;;;;12.00;10.97;;;;;;;;;;5093045;28;20454;-76
2022/04/11 01:51:24;;;;;;;13.33;11.40;;;;;;;;;;5092618;28;20450;-77
2022/04/11 01:53:51;;;;;;;11.83;10.73;;;;;;;;;;5093142;28;20444;-76
2022/04/11 01:56:19;;;;;;;12.73;11.47;;;;;;;;;;5094305;28;20474;-76
2022/04/11 01:58:46;;;;;;;12.67;11.60;;;;;;;;;;5094526;28;20440;-79
2022/04/11 02:01:17;;;;;;;12.90;11.30;;;;;;;;;;5093946;28;20469;-77
2022/04/11 02:03:45;;;;;;;13.53;10.83;;;;;;;;;;5092804;28;20451;-76
2022/04/11 02:06:12;;;;;;;14.50;11.87;;;;;;;;;;5092519;28;20522;-77
2022/04/11 02:08:39;;;;;;;13.43;12.03;;;;;;;;;;5092212;28;21215;-77
2022/04/11 02:11:06;;;;;;;13.73;11.70;;;;;;;;;;5093006;28;20451;-78
2022/04/11 02:13:34;;;;;;;12.63;11.63;;;;;;;;;;5092570;28;20504;-77
2022/04/11 02:16:01;;;;;;;12.00;10.77;;;;;;;;;;5099334;28;20478;-77
2022/04/11 02:18:28;;;;;;;12.60;11.40;;;;;;;;;;5098190;28;20844;-77
2022/04/11 02:20:55;;;;;;;12.87;11.60;;;;;;;;;;5095519;28;20440;-77
2022/04/11 02:23:22;;;;;;;12.87;11.70;;;;;;;;;;5106316;28;20427;-77
2022/04/11 02:25:49;;;;;;;12.60;11.40;;;;;;;;;;5112802;28;20446;-77
2022/04/11 02:28:16;;;;;;;11.87;10.73;;;;;;;;;;5109085;28;20464;-76
2022/04/11 02:30:45;;;;;;;14.83;11.93;;;;;;;;;;5093971;28;20432;-77
2022/04/11 02:33:12;;;;;;;13.63;12.33;;;;;;;;;;5093382;28;20443;-78
2022/04/11 02:35:40;;;;;;;12.53;11.23;;;;;;;;;;5095608;28;20476;-78
2022/04/11 02:38:07;;;;;;;12.37;11.23;;;;;;;;;;5095507;28;20465;-77
2022/04/11 02:40:34;;;;;;;12.43;11.40;;;;;;;;;;5094303;28;20447;-76
2022/04/11 02:43:01;;;;;;;11.77;10.77;;;;;;;;;;5093492;28;20443;-76
2022/04/11 02:45:29;;;;;;;12.47;11.37;;;;;;;;;;5093541;28;20508;-76
2022/04/11 02:47:57;;;;;;;12.33;11.10;;;;;;;;;;5093292;28;20559;-77
2022/04/11 02:50:24;;;;;;;11.40;10.40;;;;;;;;;;5092290;28;20531;-78
2022/04/11 02:52:52;;;;;;;12.20;11.00;;;;;;;;;;5092045;28;20526;-76
2022/04/11 02:55:21;;;;;;;11.90;10.70;;;;;;;;;;5092271;28;20825;-76
2022/04/11 02:57:48;;;;;;;11.67;10.67;;;;;;;;;;5092595;28;20449;-77
2022/04/11 03:00:15;;;;;;;11.63;10.43;;;;;;;;;;5094415;28;20458;-76
2022/04/11 03:02:43;;;;;;;13.63;12.40;;;;;;;;;;5093836;28;20447;-78
2022/04/11 03:05:11;;;;;;;12.03;11.03;;;;;;;;;;5095924;28;20466;-77
2022/04/11 03:07:38;;;;;;;11.50;10.50;;;;;;;;;;5096133;28;20852;-76
2022/04/11 03:10:07;;;;;;;12.87;11.60;;;;;;;;;;5099073;28;20444;-77
2022/04/11 03:12:34;;;;;;;12.33;11.03;;;;;;;;;;5096259;28;20447;-77
2022/04/11 03:15:02;;;;;;;11.87;10.87;;;;;;;;;;5097169;28;20570;-77
2022/04/11 03:17:29;;;;;;;12.50;11.40;;;;;;;;;;5097046;28;20451;-78
2022/04/11 03:19:56;;;;;;;12.37;10.90;;;;;;;;;;5097179;28;20453;-77
2022/04/11 03:22:25;;;;;;;12.77;11.47;;;;;;;;;;5096179;28;20503;-76
2022/04/11 03:24:52;;;;;;;12.27;11.17;;;;;;;;;;5095744;28;20556;-77
2022/04/11 03:27:19;;;;;;;13.17;11.97;;;;;;;;;;5096740;28;20534;-76
2022/04/11 03:29:46;;;;;;;13.17;11.93;;;;;;;;;;5096090;28;20578;-77
2022/04/11 03:32:13;;;;;;;12.30;11.20;;;;;;;;;;5095951;28;20426;-77
2022/04/11 03:34:40;;;;;;;12.53;11.23;;;;;;;;;;5096933;28;20504;-76
2022/04/11 03:37:07;;;;;;;14.00;12.70;;;;;;;;;;5102593;28;20468;-76
2022/04/11 03:39:35;;;;;;;12.90;11.73;;;;;;;;;;5119929;28;20467;-78
2022/04/11 03:42:02;;;;;;;13.57;12.27;;;;;;;;;;5120136;28;20511;-78
2022/04/11 03:44:29;;;;;;;13.80;11.87;;;;;;;;;;5120282;28;20471;-78
2022/04/11 03:46:56;;;;;;;13.00;11.73;;;;;;;;;;5120076;28;20455;-77
2022/04/11 03:49:23;;;;;;;12.57;11.27;;;;;;;;;;5101905;28;20476;-76
2022/04/11 03:51:51;;;;;;;15.30;11.13;;;;;;;;;;5097273;28;20447;-77
2022/04/11 03:54:18;;;;;;;14.20;12.83;;;;;;;;;;5095309;28;20544;-77
2022/04/11 03:56:46;;;;;;;13.10;11.90;;;;;;;;;;5097521;28;20483;-77
2022/04/11 03:59:13;;;;;;;13.07;11.77;;;;;;;;;;5095643;28;20448;-76
2022/04/11 04:01:40;;;;;;;11.67;10.67;;;;;;;;;;5095169;28;20856;-77
2022/04/11 04:04:08;;;;;;;13.30;11.90;;;;;;;;;;5095093;28;20443;-77
2022/04/11 04:06:36;;;;;;;16.47;12.57;;;;;;;;;;5095268;28;20443;-77
2022/04/11 04:09:03;;;;;;;13.33;12.00;;;;;;;;;;5095135;28;20443;-78
2022/04/11 04:11:30;;;;;;;12.00;10.90;;;;;;;;;;5095322;28;20446;-77
2022/04/11 04:13:58;;;;;;;12.80;11.57;;;;;;;;;;5096444;28;20464;-77
2022/04/11 04:16:25;;;;;;;15.00;11.43;;;;;;;;;;5095267;28;20479;-78
2022/04/11 04:18:52;;;;;;;15.00;12.90;;;;;;;;;;5095154;28;20966;-78
2022/04/11 04:21:19;;;;;;;13.07;11.90;;;;;;;;;;5095096;28;20481;-78
2022/04/11 04:23:46;;;;;;;13.30;11.90;;;;;;;;;;5094443;28;20470;-77
2022/04/11 04:26:13;;;;;;;13.80;12.60;;;;;;;;;;5095767;28;20848;-78
2022/04/11 04:28:40;;;;;;;13.43;12.13;;;;;;;;;;5095270;28;20454;-76
2022/04/11 04:31:08;;;;;;;13.33;11.97;;;;;;;;;;5108779;28;20442;-77
2022/04/11 04:33:35;;;;;;;13.53;12.13;;;;;;;;;;5100354;28;20456;-77
2022/04/11 04:36:02;;;;;;;14.17;12.77;;;;;;;;;;5085275;28;20498;-78
2022/04/11 04:38:29;;;;;;;13.60;12.30;;;;;;;;;;5075398;28;20865;-77
2022/04/11 04:40:58;;;;;;;14.13;11.90;;;;;;;;;;5074514;28;20451;-76
2022/04/11 04:43:25;;;;;;;14.37;12.23;;;;;;;;;;5076315;28;20459;-78
2022/04/11 04:45:52;;;;;;;16.63;14.53;;;;;;;;;;5074369;28;20518;-78
2022/04/11 04:48:20;;;;;;;15.53;13.33;;;;;;;;;;5077131;28;20515;-78
2022/04/11 04:50:47;;;;;;;13.77;12.40;;;;;;;;;;5076432;28;20442;-76
2022/04/11 04:53:15;;;;;;;14.93;13.07;;;;;;;;;;5073916;28;20447;-77
2022/04/11 04:55:42;;;;;;;13.50;11.90;;;;;;;;;;5074587;28;20477;-77
2022/04/11 04:58:09;;;;;;;13.30;12.10;;;;;;;;;;5074312;28;20444;-77
2022/04/11 05:00:36;;;;;;;13.97;12.67;;;;;;;;;;5074056;28;20527;-78
2022/04/11 05:03:03;;;;;;;15.53;12.27;;;;;;;;;;5074549;28;20444;-78
2022/04/11 05:05:32;;;;;;;14.90;12.17;;;;;;;;;;5075219;28;20476;-76
2022/04/11 05:07:59;;;;;;;14.63;13.23;;;;;;;;;;5075073;28;20440;-78
2022/04/11 05:10:26;;;;;;;14.23;12.93;;;;;;;;;;5088613;28;20491;-77
2022/04/11 05:12:53;;;;;;;15.20;13.90;;;;;;;;;;5098511;28;20446;-77
2022/04/11 05:15:20;;;;;;;14.80;13.50;;;;;;;;;;5098546;28;20446;-77
2022/04/11 05:17:47;;;;;;;21.73;18.60;;;;;;;;;;5091912;28;20465;-77
2022/04/11 05:20:14;;;;;;;16.57;14.97;;;;;;;;;;5092347;28;20447;-77
2022/04/11 05:22:42;;;;;;;20.97;16.67;;;;;;;;;;5082479;28;20440;-77
2022/04/11 05:25:10;;;;;;;14.30;13.00;;;;;;;;;;5073488;28;20521;-77
2022/04/11 05:27:37;;;;;;;14.70;13.30;;;;;;;;;;5074272;28;20441;-76
2022/04/11 05:30:05;;;;;;;19.60;16.60;;;;;;;;;;5074154;28;20820;-78
2022/04/11 05:32:32;;;;;;;16.50;14.70;;;;;;;;;;5073347;28;20458;-78
2022/04/11 05:34:59;;;;;;;17.50;14.40;;;;;;;;;;5073331;28;20543;-78
2022/04/11 05:37:26;;;;;;;15.13;13.73;;;;;;;;;;5073160;28;20486;-78
2022/04/11 05:39:55;;;;;;;14.53;13.23;;;;;;;;;;5073102;28;20520;-78
2022/04/11 05:42:22;;;;;;;15.13;13.23;;;;;;;;;;5073102;28;20465;-77
2022/04/11 05:44:49;;;;;;;17.23;14.07;;;;;;;;;;5073315;28;20867;-78
2022/04/11 05:47:16;;;;;;;16.33;14.83;;;;;;;;;;5073014;28;20486;-78
2022/04/11 05:49:43;;;;;;;16.07;14.37;;;;;;;;;;5072497;28;20472;-77
2022/04/11 05:52:10;;;;;;;14.67;13.27;;;;;;;;;;5072521;28;20456;-78
2022/04/11 05:54:38;;;;;;;15.20;13.77;;;;;;;;;;5072475;28;20463;-77
2022/04/11 05:57:07;;;;;;;14.70;13.40;;;;;;;;;;5072303;28;20565;-77
2022/04/11 05:59:34;;;;;;;15.20;13.90;;;;;;;;;;5072403;28;20926;-77
2022/04/11 06:02:01;;;;;;;14.37;12.87;;;;;;;;;;5073474;28;20451;-77
2022/04/11 06:04:28;;;;;;;16.13;13.50;;;;;;;;;;5071778;28;20868;-79
2022/04/11 06:06:55;;;;;;;20.43;18.43;;;;;;;;;;5073070;28;20440;-77
2022/04/11 06:09:22;;;;;;;14.23;12.83;;;;;;;;;;5073433;28;20448;-77
2022/04/11 06:11:49;;;;;;;16.87;15.17;;;;;;;;;;5072702;28;20812;-78
2022/04/11 06:14:17;;;;;;;14.77;13.47;;;;;;;;;;5072284;28;20501;-78
2022/04/11 06:16:44;;;;;;;16.13;14.50;;;;;;;;;;5072642;28;20480;-76
2022/04/11 06:19:11;;;;;;;18.03;13.47;;;;;;;;;;5072572;28;20452;-77
2022/04/11 06:21:38;;;;;;;14.83;12.53;;;;;;;;;;5071921;28;20808;-78
2022/04/11 06:24:05;;;;;;;16.63;14.90;;;;;;;;;;5072219;28;20447;-76
2022/04/11 06:26:33;;;;;;;15.70;13.80;;;;;;;;;;5071871;28;20440;-77
2022/04/11 06:29:00;;;;;;;13.93;12.53;;;;;;;;;;5073118;28;20505;-79
2022/04/11 06:31:28;;;;;;;14.27;12.87;;;;;;;;;;5072391;28;20432;-77
2022/04/11 06:33:55;;;;;;;15.50;13.90;;;;;;;;;;5071891;28;20448;-77
2022/04/11 06:36:22;;;;;;;14.03;12.60;;;;;;;;;;5071660;28;21062;-78
2022/04/11 06:38:49;;;;;;;14.97;13.60;;;;;;;;;;5071751;28;20448;-78
2022/04/11 06:41:16;;;;;;;16.80;15.10;;;;;;;;;;5071792;28;20509;-78
2022/04/11 06:43:43;;;;;;;14.40;13.10;;;;;;;;;;5073891;28;20468;-78
2022/04/11 06:46:10;;;;;;;14.50;12.87;;;;;;;;;;5075082;28;20457;-78
2022/04/11 06:48:38;;;;;;;15.87;14.37;;;;;;;;;;5075281;28;20440;-78
2022/04/11 06:51:05;;;;;;;17.13;12.07;;;;;;;;;;5079407;28;20463;-78
2022/04/11 06:53:33;;;;;;;17.10;13.30;;;;;;;;;;5077830;28;20455;-77
2022/04/11 06:56:00;;;;;;;16.50;13.87;;;;;;;;;;5091210;28;20861;-78
2022/04/11 06:58:27;;;;;;;16.03;14.37;;;;;;;;;;5092395;28;20548;-78
2022/04/11 07:00:54;;;;;;;15.00;12.60;;;;;;;;;;5091582;28;20868;-78
2022/04/11 07:03:21;;;;;;;14.00;12.50;;;;;;;;;;5092023;28;20443;-78
2022/04/11 07:05:50;;;;;;;13.23;11.93;;;;;;;;;;5091846;28;20855;-79
2022/04/11 07:08:17;;;;;;;13.60;12.20;;;;;;;;;;5091715;28;20447;-77
2022/04/11 07:10:45;;;;;;;14.83;11.90;;;;;;;;;;5092038;28;20436;-78
2022/04/11 07:13:12;;;;;;;12.87;11.50;;;;;;;;;;5091188;28;20542;-77
2022/04/11 07:15:39;;;;;;;14.67;11.93;;;;;;;;;;5091376;28;21036;-77
2022/04/11 07:18:06;;;;;;;12.27;11.07;;;;;;;;;;5091424;28;20471;-77
2022/04/11 07:20:33;;;;;;;12.17;10.87;;;;;;;;;;5091678;28;20435;-77
2022/04/11 07:23:01;;;;;;;12.70;11.50;;;;;;;;;;5091248;28;20436;-78
2022/04/11 07:25:28;;;;;;;11.67;10.33;;;;;;;;;;5091249;28;20528;-78
2022/04/11 07:27:56;;;;;;;11.80;10.70;;;;;;;;;;5091575;28;20467;-78
2022/04/11 07:30:23;;;;;;;10.87;9.77;;;;;;;;;;5091365;28;20531;-79
2022/04/11 07:32:50;;;;;;;10.13;9.13;;;;;;;;;;5091140;28;20447;-77
2022/04/11 07:35:18;;;;;;;16.80;15.00;;;;;;;;;;5091183;28;21051;-78
2022/04/11 07:37:45;;;;;;;10.40;9.30;;;;;;;;;;5091348;28;20491;-78
2022/04/11 07:40:13;;;;;;;11.33;10.13;;;;;;;;;;5091658;28;20441;-77
2022/04/11 07:42:40;;;;;;;11.50;10.40;;;;;;;;;;5090793;28;20476;-77
2022/04/11 07:45:08;;;;;;;11.30;10.33;;;;;;;;;;5091819;28;20457;-77
2022/04/11 07:47:35;;;;;;;10.23;9.17;;;;;;;;;;5090541;28;20925;-78
2022/04/11 07:50:02;;;;;;;9.43;8.53;;;;;;;;;;5093686;28;20903;-78
2022/04/11 07:52:29;;;;;;;9.80;8.83;;;;;;;;;;5095030;28;20454;-79
2022/04/11 07:54:56;;;;;;;9.00;8.27;;;;;;;;;;5094894;28;20623;-77
2022/04/11 07:57:25;;;;;;;10.90;8.10;;;;;;;;;;5094611;28;20479;-78
2022/04/11 07:59:52;;;;;;;8.30;7.50;;;;;;;;;;5095393;28;20471;-78
2022/04/11 08:02:24;;;;;;;8.30;6.87;;;;;;;;;;5094600;28;20938;-77
2022/04/11 08:04:51;;;;;;;7.93;6.50;;;;;;;;;;5095191;28;20517;-78
2022/04/11 08:07:18;;;;;;;7.43;6.70;;;;;;;;;;5094735;28;20497;-79
2022/04/11 08:09:45;;;;;;;7.77;7.03;;;;;;;;;;5100224;28;20474;-78
2022/04/11 08:12:13;;;;;;;6.43;5.93;;;;;;;;;;5105422;28;20489;-79
2022/04/11 08:14:41;;;;;;;6.13;5.73;;;;;;;;;;5105270;28;20466;-78
2022/04/11 08:17:08;;;;;;;7.87;6.50;;;;;;;;;;5105649;28;20498;-79
2022/04/11 08:19:35;;;;;;;7.23;6.60;;;;;;;;;;5103952;28;20455;-78
2022/04/11 08:22:02;;;;;;;7.23;6.67;;;;;;;;;;5095874;28;20451;-78
2022/04/11 08:24:29;;;;;;;6.77;6.07;;;;;;;;;;5094287;28;20482;-79
2022/04/11 08:26:58;;;;;;;8.63;6.20;;;;;;;;;;5095543;28;20450;-79
2022/04/11 08:29:25;;;;;;;7.07;6.47;;;;;;;;;;5094259;28;20927;-78
2022/04/11 08:31:53;;;;;;;6.90;6.17;;;;;;;;;;5094155;28;20500;-78
2022/04/11 08:34:20;;;;;;;6.10;5.60;;;;;;;;;;5093924;28;20466;-78
2022/04/11 08:36:48;;;;;;;6.70;6.00;;;;;;;;;;5093843;28;20508;-79
2022/04/11 08:39:16;;;;;;;7.30;6.60;;;;;;;;;;5094033;28;20448;-78
2022/04/11 08:41:43;;;;;;;6.10;5.60;;;;;;;;;;5093885;28;20495;-77
2022/04/11 08:44:10;;;;;;;5.30;4.90;;;;;;;;;;5093882;28;20471;-79
2022/04/11 08:46:37;;;;;;;5.87;5.03;;;;;;;;;;5093692;28;20927;-79
2022/04/11 08:49:07;;;;;;;5.27;4.87;;;;;;;;;;5093892;28;20500;-80
2022/04/11 08:51:35;;;;;;;5.07;4.67;;;;;;;;;;5094031;28;20559;-78
2022/04/11 08:54:02;;;;;;;5.03;4.40;;;;;;;;;;5093681;28;20458;-79
2022/04/11 08:56:29;;;;;;;5.90;5.33;;;;;;;;;;5094028;28;20439;-78
2022/04/11 08:58:56;;;;;;;4.70;4.40;;;;;;;;;;5094085;28;20480;-78
2022/04/11 09:01:24;;;;;;;5.60;5.10;;;;;;;;;;5093380;28;20448;-79
2022/04/11 09:03:51;;;;;;;5.47;4.73;;;;;;;;;;5094193;28;20443;-80
2022/04/11 09:06:20;;;;;;;4.40;4.00;;;;;;;;;;5094228;28;20485;-80
2022/04/11 09:08:50;;;;;;;4.73;4.37;;;;;;;;;;5094185;28;20436;-79
2022/04/11 09:11:28;;;;;;;4.40;4.00;;;;;;;;;;5094311;28;20943;-79
2022/04/11 09:13:55;;;;;;;4.60;3.93;;;;;;;;;;5093357;28;20497;-79
2022/04/11 09:16:22;;;;;;;4.80;4.40;;;;;;;;;;5091902;28;20489;-78
2022/04/11 09:18:50;;;;;;;5.03;3.93;;;;;;;;;;5080529;28;20497;-78
2022/04/11 09:21:17;;;;;;;4.37;3.97;;;;;;;;;;5095681;28;20444;-78
2022/04/11 09:23:46;;;;;;;3.97;3.70;;;;;;;;;;5096234;28;20826;-78
2022/04/11 09:26:21;;;;;;;4.20;3.90;;;;;;;;;;5093235;28;20494;-79
2022/04/11 09:29:01;;;;;;;4.10;3.80;;;;;;;;;;5094637;28;20941;-78
2022/04/11 09:31:28;;;;;;;4.17;3.73;;;;;;;;;;5089969;28;20443;-79
2022/04/11 09:33:56;;;;;;;4.50;4.20;;;;;;;;;;5091766;28;20445;-78
2022/04/11 09:36:23;;;;;;;4.97;4.57;;;;;;;;;;5074976;28;20855;-80
2022/04/11 09:39:02;;;;;;;4.30;3.90;;;;;;;;;;5073279;28;20971;-79
2022/04/11 09:41:29;;;;;;;4.33;4.03;;;;;;;;;;5072853;28;20448;-79
2022/04/11 09:43:56;;;;;;;4.30;3.90;;;;;;;;;;5072389;28;20632;-79
2022/04/11 09:46:24;;;;;;;4.27;3.70;;;;;;;;;;5072373;28;20453;-79
2022/04/11 09:48:54;;;;;;;3.43;3.10;;;;;;;;;;5072726;28;20811;-77
2022/04/11 09:51:21;;;;;;;3.20;3.00;;;;;;;;;;5072170;28;20548;-79
2022/04/11 09:53:48;;;;;;;4.00;3.70;;;;;;;;;;5072727;28;20451;-78
2022/04/11 09:56:17;;;;;;;3.00;2.83;;;;;;;;;;5071944;28;20472;-78
2022/04/11 09:58:44;;;;;;;3.77;3.37;;;;;;;;;;5088220;28;20475;-78
2022/04/11 10:01:11;;;;;;;3.83;3.53;;;;;;;;;;5086209;28;20485;-78
2022/04/11 10:03:39;;;;;;;3.40;3.10;;;;;;;;;;5086134;28;20443;-78
2022/04/11 10:06:06;;;;;;;4.23;3.47;;;;;;;;;;5082852;28;21007;-78
2022/04/11 10:08:33;;;;;;;3.23;3.00;;;;;;;;;;5086880;28;20436;-78
2022/04/11 10:11:01;;;;;;;3.33;3.03;;;;;;;;;;5092623;28;20440;-77
2022/04/11 10:13:30;;;;;;;3.43;3.13;;;;;;;;;;5092354;28;20558;-78
2022/04/11 10:15:57;;;;;;;3.63;3.33;;;;;;;;;;5092617;28;20520;-78
2022/04/11 10:18:25;;;;;;;3.57;3.27;;;;;;;;;;5092169;28;20533;-78
2022/04/11 10:20:54;;;;;;;3.40;3.20;;;;;;;;;;5073241;28;20445;-77
2022/04/11 10:23:28;;;;;;;2.80;2.60;;;;;;;;;;5072116;28;20502;-78
2022/04/11 10:25:57;;;;;;;3.53;3.23;;;;;;;;;;5072574;28;20460;-78
2022/04/11 10:28:25;;;;;;;2.90;2.70;;;;;;;;;;5072548;28;20453;-78
2022/04/11 10:31:08;;;;;;;2.60;2.40;;;;;;;;;;5073772;28;20444;-79
2022/04/11 10:33:46;;;;;;;3.20;2.90;;;;;;;;;;5071663;28;20452;-78
2022/04/11 10:36:29;;;;;;;3.10;2.90;;;;;;;;;;5072087;28;20594;-78
2022/04/11 10:39:15;;;;;;;2.67;2.47;;;;;;;;;;5072175;28;20484;-78
2022/04/11 10:42:05;;;;;;;3.23;2.97;;;;;;;;;;5072396;28;20531;-79
2022/04/11 10:44:32;;;;;;;3.90;3.07;;;;;;;;;;5071946;28;20464;-79
2022/04/11 10:47:15;;;;;;;4.43;3.00;;;;;;;;;;5080399;28;20444;-80
2022/04/11 10:49:57;;;;;;;4.40;3.10;;;;;;;;;;5084696;28;20448;-78
2022/04/11 10:52:32;;;;;;;3.83;3.00;;;;;;;;;;5092322;28;20443;-79
2022/04/11 10:55:06;;;;;;;3.43;2.43;;;;;;;;;;5096998;28;20486;-77
2022/04/11 10:57:33;;;;;;;2.60;2.40;;;;;;;;;;5093179;28;20531;-78
2022/04/11 11:00:06;;;;;;;4.27;3.80;;;;;;;;;;5094204;28;20439;-78
2022/04/11 11:02:53;;;;;;;3.80;2.73;;;;;;;;;;5092828;28;20485;-78
2022/04/11 11:05:24;;;;;;;2.53;2.30;;;;;;;;;;5096597;28;20452;-80
2022/04/11 11:08:13;;;;;;;3.03;2.83;;;;;;;;;;5106386;28;20463;-80
2022/04/11 11:10:40;;;;;;;4.13;2.67;;;;;;;;;;5105993;28;20444;-78
2022/04/11 11:13:27;;;;;;;3.33;2.97;;;;;;;;;;5101744;28;20456;-78
2022/04/11 11:15:54;;;;;;;3.17;2.97;;;;;;;;;;5092589;28;20798;-78
2022/04/11 11:18:21;;;;;;;3.77;2.90;;;;;;;;;;5092814;28;20468;-79
2022/04/11 11:20:52;;;;;;;3.97;3.60;;;;;;;;;;5088892;28;20536;-78
2022/04/11 11:23:25;;;;;;;2.93;2.47;;;;;;;;;;5089944;28;20962;-79
2022/04/11 11:25:53;;;;;;;3.47;3.10;;;;;;;;;;5075404;28;20492;-77
2022/04/11 11:28:20;;;;;;;3.87;2.80;;;;;;;;;;5075357;28;20487;-78
2022/04/11 11:30:47;;;;;;;2.73;2.53;;;;;;;;;;5074808;28;20490;-77
2022/04/11 11:33:15;;;;;;;2.87;2.67;;;;;;;;;;5074914;28;20440;-78
2022/04/11 11:35:46;;;;;;;3.27;2.77;;;;;;;;;;5076971;28;20514;-79
2022/04/11 11:38:13;;;;;;;3.33;3.03;;;;;;;;;;5082116;28;20527;-77
2022/04/11 11:40:44;;;;;;;3.63;3.20;;;;;;;;;;5080454;28;20452;-77
2022/04/11 11:43:15;;;;;;;3.83;3.03;;;;;;;;;;5076542;28;20991;-78
2022/04/11 11:45:42;;;;;;;2.90;2.60;;;;;;;;;;5079019;28;20459;-79
2022/04/11 11:48:25;;;;;;;2.70;2.50;;;;;;;;;;5094853;28;20431;-77
2022/04/11 11:50:55;;;;;;;3.67;2.80;;;;;;;;;;5094921;28;20516;-77
2022/04/11 11:53:22;;;;;;;3.30;3.00;;;;;;;;;;5094765;28;20509;-77
2022/04/11 11:55:57;;;;;;;3.00;2.80;;;;;;;;;;5094864;28;20483;-77
2022/04/11 11:58:34;;;;;;;2.90;2.70;;;;;;;;;;5094180;28;20478;-77
2022/04/11 12:01:02;;;;;;;3.50;3.10;;;;;;;;;;5094846;28;20513;-77
2022/04/11 12:06:13;;;;;;;3.17;2.67;;;;;;;;;;5094907;28;20459;-76
2022/04/11 12:08:40;;;;;;;3.70;3.40;;;;;;;;;;5094878;28;20439;-77
2022/04/11 12:11:10;;;;;;;3.27;2.97;;;;;;;;;;5094912;28;20456;-77
2022/04/11 12:13:37;;;;;;;2.87;2.57;;;;;;;;;;5094758;28;20529;-77
2022/04/11 12:16:08;;;;;;;2.93;2.73;;;;;;;;;;5094906;28;20481;-76
2022/04/11 12:18:48;;;;;;;3.40;2.50;;;;;;;;;;5094538;28;20468;-77
2022/04/11 12:21:15;;;;;;;3.00;2.77;;;;;;;;;;5094500;28;20518;-76
2022/04/11 12:23:47;;;;;;;3.20;2.90;;;;;;;;;;5094136;28;20805;-78
2022/04/11 12:26:25;;;;;;;4.73;2.63;;;;;;;;;;5093933;28;20906;-78
2022/04/11 12:28:52;;;;;;;3.60;2.90;;;;;;;;;;5094525;28;20511;-77
2022/04/11 12:31:19;;;;;;;2.93;2.70;;;;;;;;;;5094456;28;20454;-77
2022/04/11 12:33:48;;;;;;;4.53;2.90;;;;;;;;;;5094121;28;20440;-78
2022/04/11 12:36:17;;;;;;;2.87;2.70;;;;;;;;;;5094159;28;21039;-76
2022/04/11 12:38:45;;;;;;;2.60;2.50;;;;;;;;;;5094227;28;20483;-76
2022/04/11 12:41:27;;;;;;;4.47;3.10;;;;;;;;;;5098739;28;20485;-77
2022/04/11 12:44:18;;;;;;;2.37;2.27;;;;;;;;;;5098390;28;20451;-77
2022/04/11 12:46:47;;;;;;;2.77;2.57;;;;;;;;;;5077152;28;20448;-76
2022/04/11 12:49:15;;;;;;;3.27;3.07;;;;;;;;;;5096059;28;20439;-76
2022/04/11 12:51:42;;;;;;;2.83;2.63;;;;;;;;;;5095826;28;20435;-76
2022/04/11 12:54:10;;;;;;;4.23;2.70;;;;;;;;;;5095322;28;20474;-77
2022/04/11 12:56:40;;;;;;;3.93;3.10;;;;;;;;;;5094383;28;20447;-78
2022/04/11 12:59:07;;;;;;;3.00;2.80;;;;;;;;;;5094295;28;20509;-77
2022/04/11 13:01:53;;;;;;;3.70;3.00;;;;;;;;;;5093850;28;20561;-76
2022/04/11 13:04:20;;;;;;;3.53;3.33;;;;;;;;;;5093049;28;20471;-77
2022/04/11 13:06:49;;;;;;;3.10;2.90;;;;;;;;;;5093658;28;20471;-77
2022/04/11 13:09:16;;;;;;;3.50;3.20;;;;;;;;;;5093013;28;21142;-77
2022/04/11 13:11:45;;;;;;;3.50;3.20;;;;;;;;;;5093167;28;21234;-77
2022/04/11 13:14:12;;;;;;;3.27;2.70;;;;;;;;;;5092803;28;21047;-76
2022/04/11 13:19:24;;;;;;;3.17;2.97;;;;;;;;;;5092820;28;20487;-76
2022/04/11 13:21:51;;;;;;;3.03;2.83;;;;;;;;;;5092638;28;20935;-76
2022/04/11 13:24:21;;;;;;;3.73;3.43;;;;;;;;;;5092260;28;20467;-75
2022/04/11 13:26:50;;;;;;;3.67;2.80;;;;;;;;;;5092311;28;20822;-77
2022/04/11 13:29:17;;;;;;;3.40;3.10;;;;;;;;;;5091303;28;20807;-79
2022/04/11 13:31:44;;;;;;;3.80;3.30;;;;;;;;;;5080184;28;20813;-77
2022/04/11 13:34:11;;;;;;;3.17;2.87;;;;;;;;;;5072031;28;20436;-76
2022/04/11 13:36:38;;;;;;;3.83;3.27;;;;;;;;;;5072276;28;20530;-76
2022/04/11 13:39:05;;;;;;;4.07;3.77;;;;;;;;;;5072160;28;20534;-76
2022/04/11 13:41:33;;;;;;;3.63;3.33;;;;;;;;;;5072013;28;20818;-75
2022/04/11 13:44:02;;;;;;;5.50;4.20;;;;;;;;;;5071520;28;20531;-77
2022/04/11 13:46:29;;;;;;;4.00;3.70;;;;;;;;;;5071207;28;20448;-76
2022/04/11 13:48:56;;;;;;;3.53;3.23;;;;;;;;;;5072204;28;20433;-76
2022/04/11 13:51:23;;;;;;;4.60;4.20;;;;;;;;;;5072270;28;20517;-76
2022/04/11 13:53:50;;;;;;;4.00;3.70;;;;;;;;;;5071575;28;20813;-77
2022/04/11 13:56:18;;;;;;;3.70;3.50;;;;;;;;;;5071870;28;20447;-77
2022/04/11 13:58:45;;;;;;;5.10;3.80;;;;;;;;;;5072015;28;20546;-76
2022/04/11 14:01:13;;;;;;;4.03;3.73;;;;;;;;;;5071751;28;20448;-77
2022/04/11 14:03:40;;;;;;;3.57;3.33;;;;;;;;;;5071379;28;20491;-76
2022/04/11 14:06:08;;;;;;;3.63;3.37;;;;;;;;;;5071814;28;20495;-75
2022/04/11 14:08:35;;;;;;;4.33;3.93;;;;;;;;;;5071813;28;20502;-76
2022/04/11 14:11:03;;;;;;;4.30;3.53;;;;;;;;;;5071903;28;20493;-77
2022/04/11 14:13:31;;;;;;;4.20;3.80;;;;;;;;;;5071183;28;20452;-76
2022/04/11 14:15:58;;;;;;;4.30;3.90;;;;;;;;;;5083170;28;20468;-77
2022/04/11 14:18:26;;;;;;;3.57;3.27;;;;;;;;;;5091729;28;20834;-76
2022/04/11 14:20:55;;;;;;;4.33;3.90;;;;;;;;;;5090005;28;20475;-76
2022/04/11 14:23:24;;;;;;;4.20;3.90;;;;;;;;;;5081110;28;20448;-76
2022/04/11 14:25:52;;;;;;;4.63;4.23;;;;;;;;;;5070875;28;20829;-76
2022/04/11 14:28:19;;;;;;;4.40;4.10;;;;;;;;;;5090919;28;20501;-76
2022/04/11 14:30:46;;;;;;;4.63;4.00;;;;;;;;;;5086222;28;20498;-77
2022/04/11 14:33:13;;;;;;;3.60;3.40;;;;;;;;;;5071159;28;20502;-77
2022/04/11 14:35:43;;;;;;;4.50;4.20;;;;;;;;;;5070757;28;20460;-77
2022/04/11 14:38:10;;;;;;;4.50;4.20;;;;;;;;;;5071084;28;20449;-76
2022/04/11 14:40:37;;;;;;;4.07;3.80;;;;;;;;;;5071389;28;20999;-77